sensor_id;sensor_type;location;lat;lon;timestamp;P1;durP1;ratioP1;P2;durP2;ratioP2
9960;SDS011;5021;51.506;11.320;2022-12-15T00:02:29;29.30;;;17.17;;
9960;SDS011;5021;51.506;11.320;2022-12-15T00:05:14;28.38;;;17.42;;
9960;SDS011;5021;51.506;11.320;2022-12-15T00:08:06;26.83;;;17.30;;
9960;SDS011;5021;51.506;11.320;2022-12-15T00:10:50;30.63;;;17.83;;
9960;SDS011;5021;51.506;11.320;2022-12-15T00:13:35;32.17;;;20.50;;
9960;SDS011;5021;51.506;11.320;2022-12-15T00:16:19;23.93;;;16.83;;
9960;SDS011;5021;51.506;11.320;2022-12-15T00:19:04;26.47;;;17.13;;
9960;SDS011;5021;51.506;11.320;2022-12-15T00:21:48;31.20;;;19.17;;
9960;SDS011;5021;51.506;11.320;2022-12-15T00:24:33;26.80;;;16.67;;
9960;SDS011;5021;51.506;11.320;2022-12-15T00:27:18;22.30;;;13.93;;
9960;SDS011;5021;51.506;11.320;2022-12-15T00:30:03;26.80;;;16.73;;
9960;SDS011;5021;51.506;11.320;2022-12-15T00:32:48;29.07;;;16.53;;
9960;SDS011;5021;51.506;11.320;2022-12-15T00:35:32;24.40;;;16.40;;
9960;SDS011;5021;51.506;11.320;2022-12-15T00:38:17;23.27;;;16.10;;
9960;SDS011;5021;51.506;11.320;2022-12-15T00:41:01;26.70;;;15.60;;
9960;SDS011;5021;51.506;11.320;2022-12-15T00:43:28;25.90;;;16.10;;
9960;SDS011;5021;51.506;11.320;2022-12-15T00:45:54;30.17;;;18.50;;
9960;SDS011;5021;51.506;11.320;2022-12-15T00:48:39;30.37;;;18.73;;
9960;SDS011;5021;51.506;11.320;2022-12-15T00:51:05;28.00;;;17.20;;
9960;SDS011;5021;51.506;11.320;2022-12-15T00:53:31;27.17;;;17.52;;
9960;SDS011;5021;51.506;11.320;2022-12-15T00:56:16;26.53;;;16.50;;
9960;SDS011;5021;51.506;11.320;2022-12-15T00:59:01;31.83;;;18.87;;
9960;SDS011;5021;51.506;11.320;2022-12-15T01:01:46;31.90;;;18.70;;
9960;SDS011;5021;51.506;11.320;2022-12-15T01:04:30;35.13;;;19.63;;
9960;SDS011;5021;51.506;11.320;2022-12-15T01:07:15;34.50;;;20.80;;
9960;SDS011;5021;51.506;11.320;2022-12-15T01:10:00;33.33;;;19.63;;
9960;SDS011;5021;51.506;11.320;2022-12-15T01:12:45;32.57;;;19.50;;
9960;SDS011;5021;51.506;11.320;2022-12-15T01:15:30;26.60;;;16.37;;
9960;SDS011;5021;51.506;11.320;2022-12-15T01:18:15;28.43;;;18.50;;
9960;SDS011;5021;51.506;11.320;2022-12-15T01:21:01;28.15;;;16.80;;
9960;SDS011;5021;51.506;11.320;2022-12-15T01:23:27;28.80;;;17.97;;
9960;SDS011;5021;51.506;11.320;2022-12-15T01:25:53;34.77;;;18.37;;
9960;SDS011;5021;51.506;11.320;2022-12-15T01:28:20;26.87;;;17.07;;
9960;SDS011;5021;51.506;11.320;2022-12-15T01:30:46;30.03;;;18.03;;
9960;SDS011;5021;51.506;11.320;2022-12-15T01:33:13;28.77;;;17.50;;
9960;SDS011;5021;51.506;11.320;2022-12-15T01:35:39;25.70;;;16.93;;
9960;SDS011;5021;51.506;11.320;2022-12-15T01:38:05;26.00;;;16.17;;
9960;SDS011;5021;51.506;11.320;2022-12-15T01:40:31;30.43;;;16.77;;
9960;SDS011;5021;51.506;11.320;2022-12-15T01:43:16;29.40;;;17.20;;
9960;SDS011;5021;51.506;11.320;2022-12-15T01:48:12;26.57;;;16.13;;
9960;SDS011;5021;51.506;11.320;2022-12-15T01:50:40;23.50;;;14.20;;
9960;SDS011;5021;51.506;11.320;2022-12-15T01:53:07;26.30;;;16.17;;
9960;SDS011;5021;51.506;11.320;2022-12-15T01:55:34;22.67;;;14.23;;
9960;SDS011;5021;51.506;11.320;2022-12-15T01:58:02;25.20;;;14.27;;
9960;SDS011;5021;51.506;11.320;2022-12-15T02:00:30;23.13;;;14.53;;
9960;SDS011;5021;51.506;11.320;2022-12-15T02:02:56;23.77;;;14.33;;
9960;SDS011;5021;51.506;11.320;2022-12-15T02:05:23;21.70;;;14.10;;
9960;SDS011;5021;51.506;11.320;2022-12-15T02:07:49;24.00;;;14.83;;
9960;SDS011;5021;51.506;11.320;2022-12-15T02:10:15;19.53;;;14.17;;
9960;SDS011;5021;51.506;11.320;2022-12-15T02:12:47;20.87;;;13.60;;
9960;SDS011;5021;51.506;11.320;2022-12-15T02:15:35;23.17;;;14.10;;
9960;SDS011;5021;51.506;11.320;2022-12-15T02:18:13;22.27;;;13.57;;
9960;SDS011;5021;51.506;11.320;2022-12-15T02:23:13;20.20;;;12.70;;
9960;SDS011;5021;51.506;11.320;2022-12-15T02:31:12;20.93;;;13.03;;
9960;SDS011;5021;51.506;11.320;2022-12-15T02:34:17;20.23;;;12.70;;
9960;SDS011;5021;51.506;11.320;2022-12-15T02:36:45;18.77;;;12.37;;
9960;SDS011;5021;51.506;11.320;2022-12-15T02:39:13;18.93;;;12.53;;
9960;SDS011;5021;51.506;11.320;2022-12-15T02:41:40;20.33;;;13.17;;
9960;SDS011;5021;51.506;11.320;2022-12-15T02:44:08;23.33;;;13.30;;
9960;SDS011;5021;51.506;11.320;2022-12-15T02:49:20;21.17;;;13.40;;
9960;SDS011;5021;51.506;11.320;2022-12-15T02:57:09;26.93;;;15.50;;
9960;SDS011;5021;51.506;11.320;2022-12-15T02:59:38;26.30;;;14.97;;
9960;SDS011;5021;51.506;11.320;2022-12-15T03:02:07;24.00;;;13.93;;
9960;SDS011;5021;51.506;11.320;2022-12-15T03:04:34;25.77;;;15.63;;
9960;SDS011;5021;51.506;11.320;2022-12-15T03:07:02;27.70;;;17.23;;
9960;SDS011;5021;51.506;11.320;2022-12-15T03:09:31;26.27;;;15.97;;
9960;SDS011;5021;51.506;11.320;2022-12-15T03:11:57;27.13;;;15.47;;
9960;SDS011;5021;51.506;11.320;2022-12-15T03:14:23;25.97;;;14.97;;
9960;SDS011;5021;51.506;11.320;2022-12-15T03:16:50;24.37;;;15.33;;
9960;SDS011;5021;51.506;11.320;2022-12-15T03:19:16;25.23;;;15.37;;
9960;SDS011;5021;51.506;11.320;2022-12-15T03:21:42;23.03;;;16.20;;
9960;SDS011;5021;51.506;11.320;2022-12-15T03:24:08;26.73;;;16.40;;
9960;SDS011;5021;51.506;11.320;2022-12-15T03:26:34;26.90;;;16.73;;
9960;SDS011;5021;51.506;11.320;2022-12-15T03:29:00;24.07;;;15.30;;
9960;SDS011;5021;51.506;11.320;2022-12-15T03:31:25;23.30;;;15.00;;
9960;SDS011;5021;51.506;11.320;2022-12-15T03:33:51;22.53;;;14.40;;
9960;SDS011;5021;51.506;11.320;2022-12-15T03:36:17;26.10;;;15.07;;
9960;SDS011;5021;51.506;11.320;2022-12-15T03:38:43;27.60;;;16.13;;
9960;SDS011;5021;51.506;11.320;2022-12-15T03:41:09;32.97;;;17.70;;
9960;SDS011;5021;51.506;11.320;2022-12-15T03:43:35;28.33;;;17.73;;
9960;SDS011;5021;51.506;11.320;2022-12-15T03:46:01;39.23;;;20.97;;
9960;SDS011;5021;51.506;11.320;2022-12-15T03:48:27;39.23;;;19.07;;
9960;SDS011;5021;51.506;11.320;2022-12-15T03:50:53;35.97;;;19.87;;
9960;SDS011;5021;51.506;11.320;2022-12-15T03:53:19;45.63;;;23.20;;
9960;SDS011;5021;51.506;11.320;2022-12-15T03:55:45;40.87;;;21.30;;
9960;SDS011;5021;51.506;11.320;2022-12-15T03:58:11;35.73;;;20.47;;
9960;SDS011;5021;51.506;11.320;2022-12-15T04:00:37;38.57;;;21.30;;
9960;SDS011;5021;51.506;11.320;2022-12-15T04:03:03;40.07;;;21.07;;
9960;SDS011;5021;51.506;11.320;2022-12-15T04:05:30;36.57;;;20.17;;
9960;SDS011;5021;51.506;11.320;2022-12-15T04:07:56;36.77;;;21.60;;
9960;SDS011;5021;51.506;11.320;2022-12-15T04:10:23;38.97;;;20.30;;
9960;SDS011;5021;51.506;11.320;2022-12-15T04:12:56;39.73;;;20.73;;
9960;SDS011;5021;51.506;11.320;2022-12-15T04:15:22;37.53;;;19.90;;
9960;SDS011;5021;51.506;11.320;2022-12-15T04:17:48;31.30;;;19.20;;
9960;SDS011;5021;51.506;11.320;2022-12-15T04:20:14;34.90;;;19.70;;
9960;SDS011;5021;51.506;11.320;2022-12-15T04:22:41;32.67;;;18.20;;
9960;SDS011;5021;51.506;11.320;2022-12-15T04:25:08;30.63;;;18.17;;
9960;SDS011;5021;51.506;11.320;2022-12-15T04:27:53;32.03;;;19.20;;
9960;SDS011;5021;51.506;11.320;2022-12-15T04:30:39;32.13;;;18.80;;
9960;SDS011;5021;51.506;11.320;2022-12-15T04:33:25;31.27;;;19.67;;
9960;SDS011;5021;51.506;11.320;2022-12-15T04:36:10;30.37;;;18.07;;
9960;SDS011;5021;51.506;11.320;2022-12-15T04:38:55;32.33;;;18.43;;
9960;SDS011;5021;51.506;11.320;2022-12-15T04:41:41;27.17;;;16.57;;
9960;SDS011;5021;51.506;11.320;2022-12-15T04:44:25;27.23;;;16.17;;
9960;SDS011;5021;51.506;11.320;2022-12-15T04:47:10;25.00;;;16.53;;
9960;SDS011;5021;51.506;11.320;2022-12-15T04:49:55;24.27;;;16.03;;
9960;SDS011;5021;51.506;11.320;2022-12-15T04:52:42;28.90;;;17.20;;
9960;SDS011;5021;51.506;11.320;2022-12-15T04:55:26;26.87;;;15.10;;
9960;SDS011;5021;51.506;11.320;2022-12-15T04:58:11;23.60;;;15.10;;
9960;SDS011;5021;51.506;11.320;2022-12-15T05:00:56;25.80;;;14.90;;
9960;SDS011;5021;51.506;11.320;2022-12-15T05:03:41;26.80;;;14.60;;
9960;SDS011;5021;51.506;11.320;2022-12-15T05:06:26;25.03;;;13.47;;
9960;SDS011;5021;51.506;11.320;2022-12-15T05:09:10;20.57;;;13.17;;
9960;SDS011;5021;51.506;11.320;2022-12-15T05:11:55;21.03;;;13.03;;
9960;SDS011;5021;51.506;11.320;2022-12-15T05:14:40;21.50;;;12.37;;
9960;SDS011;5021;51.506;11.320;2022-12-15T05:17:24;18.00;;;12.20;;
9960;SDS011;5021;51.506;11.320;2022-12-15T05:20:09;16.50;;;11.57;;
9960;SDS011;5021;51.506;11.320;2022-12-15T05:22:54;17.73;;;11.30;;
9960;SDS011;5021;51.506;11.320;2022-12-15T05:25:38;19.07;;;12.73;;
9960;SDS011;5021;51.506;11.320;2022-12-15T05:28:23;16.02;;;10.85;;
9960;SDS011;5021;51.506;11.320;2022-12-15T05:31:08;20.50;;;12.80;;
9960;SDS011;5021;51.506;11.320;2022-12-15T05:33:53;18.70;;;11.63;;
9960;SDS011;5021;51.506;11.320;2022-12-15T05:36:19;19.55;;;12.40;;
9960;SDS011;5021;51.506;11.320;2022-12-15T05:38:49;19.70;;;12.38;;
9960;SDS011;5021;51.506;11.320;2022-12-15T05:41:15;19.00;;;12.30;;
9960;SDS011;5021;51.506;11.320;2022-12-15T05:43:42;20.20;;;12.60;;
9960;SDS011;5021;51.506;11.320;2022-12-15T05:46:08;20.77;;;12.32;;
9960;SDS011;5021;51.506;11.320;2022-12-15T05:48:34;19.60;;;12.40;;
9960;SDS011;5021;51.506;11.320;2022-12-15T05:51:06;20.23;;;11.53;;
9960;SDS011;5021;51.506;11.320;2022-12-15T05:53:34;19.17;;;12.73;;
9960;SDS011;5021;51.506;11.320;2022-12-15T05:56:03;23.43;;;13.97;;
9960;SDS011;5021;51.506;11.320;2022-12-15T05:58:30;20.08;;;13.50;;
9960;SDS011;5021;51.506;11.320;2022-12-15T06:01:03;22.70;;;14.82;;
9960;SDS011;5021;51.506;11.320;2022-12-15T06:03:29;21.92;;;14.93;;
9960;SDS011;5021;51.506;11.320;2022-12-15T06:05:56;24.83;;;15.23;;
9960;SDS011;5021;51.506;11.320;2022-12-15T06:08:22;26.45;;;14.73;;
9960;SDS011;5021;51.506;11.320;2022-12-15T06:10:52;23.33;;;15.33;;
9960;SDS011;5021;51.506;11.320;2022-12-15T06:13:22;24.70;;;15.30;;
9960;SDS011;5021;51.506;11.320;2022-12-15T06:15:55;30.57;;;18.37;;
9960;SDS011;5021;51.506;11.320;2022-12-15T06:18:21;27.55;;;17.48;;
9960;SDS011;5021;51.506;11.320;2022-12-15T06:20:47;30.75;;;17.15;;
9960;SDS011;5021;51.506;11.320;2022-12-15T06:23:13;27.43;;;16.83;;
9960;SDS011;5021;51.506;11.320;2022-12-15T06:25:39;28.83;;;16.63;;
9960;SDS011;5021;51.506;11.320;2022-12-15T06:28:05;40.93;;;22.83;;
9960;SDS011;5021;51.506;11.320;2022-12-15T06:30:31;52.97;;;25.47;;
9960;SDS011;5021;51.506;11.320;2022-12-15T06:32:57;47.10;;;25.27;;
9960;SDS011;5021;51.506;11.320;2022-12-15T06:35:23;35.63;;;21.70;;
9960;SDS011;5021;51.506;11.320;2022-12-15T06:37:49;31.43;;;18.47;;
9960;SDS011;5021;51.506;11.320;2022-12-15T06:40:15;30.67;;;17.83;;
9960;SDS011;5021;51.506;11.320;2022-12-15T06:42:41;26.47;;;17.70;;
9960;SDS011;5021;51.506;11.320;2022-12-15T06:45:07;27.30;;;16.63;;
9960;SDS011;5021;51.506;11.320;2022-12-15T06:47:33;26.98;;;17.33;;
9960;SDS011;5021;51.506;11.320;2022-12-15T06:49:59;25.30;;;15.43;;
9960;SDS011;5021;51.506;11.320;2022-12-15T06:52:26;22.48;;;15.05;;
9960;SDS011;5021;51.506;11.320;2022-12-15T06:54:52;23.83;;;15.38;;
9960;SDS011;5021;51.506;11.320;2022-12-15T06:57:18;25.53;;;16.07;;
9960;SDS011;5021;51.506;11.320;2022-12-15T06:59:44;27.73;;;15.60;;
9960;SDS011;5021;51.506;11.320;2022-12-15T07:02:19;27.10;;;15.50;;
9960;SDS011;5021;51.506;11.320;2022-12-15T07:04:45;25.83;;;15.60;;
9960;SDS011;5021;51.506;11.320;2022-12-15T07:07:11;25.60;;;16.30;;
9960;SDS011;5021;51.506;11.320;2022-12-15T07:09:37;26.93;;;16.83;;
9960;SDS011;5021;51.506;11.320;2022-12-15T07:12:03;23.17;;;15.83;;
9960;SDS011;5021;51.506;11.320;2022-12-15T07:14:29;22.67;;;14.88;;
9960;SDS011;5021;51.506;11.320;2022-12-15T07:16:55;26.67;;;16.63;;
9960;SDS011;5021;51.506;11.320;2022-12-15T07:19:21;29.27;;;17.47;;
9960;SDS011;5021;51.506;11.320;2022-12-15T07:21:47;28.70;;;17.30;;
9960;SDS011;5021;51.506;11.320;2022-12-15T07:24:13;28.83;;;17.03;;
9960;SDS011;5021;51.506;11.320;2022-12-15T07:26:39;34.30;;;20.05;;
9960;SDS011;5021;51.506;11.320;2022-12-15T07:29:06;33.20;;;21.90;;
9960;SDS011;5021;51.506;11.320;2022-12-15T07:31:32;32.67;;;20.60;;
9960;SDS011;5021;51.506;11.320;2022-12-15T07:33:58;28.53;;;18.47;;
9960;SDS011;5021;51.506;11.320;2022-12-15T07:36:24;33.27;;;20.03;;
9960;SDS011;5021;51.506;11.320;2022-12-15T07:38:53;35.15;;;19.48;;
9960;SDS011;5021;51.506;11.320;2022-12-15T07:41:21;29.10;;;18.50;;
9960;SDS011;5021;51.506;11.320;2022-12-15T07:43:47;27.43;;;18.17;;
9960;SDS011;5021;51.506;11.320;2022-12-15T07:46:13;29.80;;;17.83;;
9960;SDS011;5021;51.506;11.320;2022-12-15T07:48:39;29.70;;;20.80;;
9960;SDS011;5021;51.506;11.320;2022-12-15T07:51:05;27.23;;;17.60;;
9960;SDS011;5021;51.506;11.320;2022-12-15T07:53:31;32.13;;;20.27;;
9960;SDS011;5021;51.506;11.320;2022-12-15T07:55:58;39.63;;;25.77;;
9960;SDS011;5021;51.506;11.320;2022-12-15T07:58:25;40.25;;;25.88;;
9960;SDS011;5021;51.506;11.320;2022-12-15T08:00:51;39.10;;;22.87;;
9960;SDS011;5021;51.506;11.320;2022-12-15T08:03:17;37.93;;;22.60;;
9960;SDS011;5021;51.506;11.320;2022-12-15T08:05:43;41.73;;;24.60;;
9960;SDS011;5021;51.506;11.320;2022-12-15T08:08:09;40.20;;;25.87;;
9960;SDS011;5021;51.506;11.320;2022-12-15T08:10:38;35.60;;;20.10;;
9960;SDS011;5021;51.506;11.320;2022-12-15T08:13:04;30.37;;;18.70;;
9960;SDS011;5021;51.506;11.320;2022-12-15T08:15:30;33.10;;;19.23;;
9960;SDS011;5021;51.506;11.320;2022-12-15T08:17:56;33.30;;;19.73;;
9960;SDS011;5021;51.506;11.320;2022-12-15T08:20:22;30.27;;;18.90;;
9960;SDS011;5021;51.506;11.320;2022-12-15T08:22:50;32.03;;;17.77;;
9960;SDS011;5021;51.506;11.320;2022-12-15T08:25:16;24.45;;;16.10;;
9960;SDS011;5021;51.506;11.320;2022-12-15T08:27:42;31.30;;;17.30;;
9960;SDS011;5021;51.506;11.320;2022-12-15T08:30:08;29.27;;;16.87;;
9960;SDS011;5021;51.506;11.320;2022-12-15T08:32:34;27.03;;;17.40;;
9960;SDS011;5021;51.506;11.320;2022-12-15T08:35:00;27.23;;;18.03;;
9960;SDS011;5021;51.506;11.320;2022-12-15T08:37:26;27.40;;;17.17;;
9960;SDS011;5021;51.506;11.320;2022-12-15T08:39:52;26.53;;;18.07;;
9960;SDS011;5021;51.506;11.320;2022-12-15T08:42:18;26.30;;;17.17;;
9960;SDS011;5021;51.506;11.320;2022-12-15T08:44:46;32.33;;;20.13;;
9960;SDS011;5021;51.506;11.320;2022-12-15T08:47:13;29.43;;;20.00;;
9960;SDS011;5021;51.506;11.320;2022-12-15T08:49:39;29.97;;;18.40;;
9960;SDS011;5021;51.506;11.320;2022-12-15T08:52:04;30.93;;;19.57;;
9960;SDS011;5021;51.506;11.320;2022-12-15T08:54:30;34.97;;;20.57;;
9960;SDS011;5021;51.506;11.320;2022-12-15T08:56:56;38.43;;;22.10;;
9960;SDS011;5021;51.506;11.320;2022-12-15T08:59:22;34.87;;;20.60;;
9960;SDS011;5021;51.506;11.320;2022-12-15T09:01:49;27.43;;;17.47;;
9960;SDS011;5021;51.506;11.320;2022-12-15T09:04:15;28.23;;;18.20;;
9960;SDS011;5021;51.506;11.320;2022-12-15T09:06:41;24.30;;;16.03;;
9960;SDS011;5021;51.506;11.320;2022-12-15T09:09:07;25.67;;;16.20;;
9960;SDS011;5021;51.506;11.320;2022-12-15T09:11:35;25.77;;;15.73;;
9960;SDS011;5021;51.506;11.320;2022-12-15T09:14:01;24.13;;;16.37;;
9960;SDS011;5021;51.506;11.320;2022-12-15T09:16:27;25.10;;;16.47;;
9960;SDS011;5021;51.506;11.320;2022-12-15T09:18:55;26.77;;;17.93;;
9960;SDS011;5021;51.506;11.320;2022-12-15T09:21:22;23.80;;;16.43;;
9960;SDS011;5021;51.506;11.320;2022-12-15T09:23:50;24.37;;;15.50;;
9960;SDS011;5021;51.506;11.320;2022-12-15T09:26:16;26.40;;;17.30;;
9960;SDS011;5021;51.506;11.320;2022-12-15T09:28:43;26.40;;;16.87;;
9960;SDS011;5021;51.506;11.320;2022-12-15T09:31:12;24.63;;;16.10;;
9960;SDS011;5021;51.506;11.320;2022-12-15T09:33:38;22.93;;;16.67;;
9960;SDS011;5021;51.506;11.320;2022-12-15T09:36:05;25.03;;;16.27;;
9960;SDS011;5021;51.506;11.320;2022-12-15T09:38:35;22.10;;;15.00;;
9960;SDS011;5021;51.506;11.320;2022-12-15T09:43:38;25.10;;;16.33;;
9960;SDS011;5021;51.506;11.320;2022-12-15T09:46:07;24.57;;;16.07;;
9960;SDS011;5021;51.506;11.320;2022-12-15T09:48:40;26.07;;;17.30;;
9960;SDS011;5021;51.506;11.320;2022-12-15T09:51:11;32.77;;;20.23;;
9960;SDS011;5021;51.506;11.320;2022-12-15T09:53:39;31.10;;;22.17;;
9960;SDS011;5021;51.506;11.320;2022-12-15T09:56:12;29.63;;;21.07;;
9960;SDS011;5021;51.506;11.320;2022-12-15T09:58:49;31.03;;;22.07;;
9960;SDS011;5021;51.506;11.320;2022-12-15T10:06:18;30.13;;;19.60;;
9960;SDS011;5021;51.506;11.320;2022-12-15T10:08:55;25.50;;;18.83;;
9960;SDS011;5021;51.506;11.320;2022-12-15T10:16:49;30.70;;;20.10;;
9960;SDS011;5021;51.506;11.320;2022-12-15T10:19:18;31.27;;;19.37;;
9960;SDS011;5021;51.506;11.320;2022-12-15T10:21:47;29.40;;;19.93;;
9960;SDS011;5021;51.506;11.320;2022-12-15T10:24:14;31.80;;;20.57;;
9960;SDS011;5021;51.506;11.320;2022-12-15T10:26:41;29.87;;;20.33;;
9960;SDS011;5021;51.506;11.320;2022-12-15T10:29:13;29.27;;;19.57;;
9960;SDS011;5021;51.506;11.320;2022-12-15T10:31:49;28.03;;;19.33;;
9960;SDS011;5021;51.506;11.320;2022-12-15T10:34:29;28.00;;;20.20;;
9960;SDS011;5021;51.506;11.320;2022-12-15T10:36:56;29.60;;;20.23;;
9960;SDS011;5021;51.506;11.320;2022-12-15T10:39:23;31.17;;;19.90;;
9960;SDS011;5021;51.506;11.320;2022-12-15T10:42:35;28.63;;;19.27;;
9960;SDS011;5021;51.506;11.320;2022-12-15T10:44:57;26.13;;;19.03;;
9960;SDS011;5021;51.506;11.320;2022-12-15T10:47:27;30.03;;;19.43;;
9960;SDS011;5021;51.506;11.320;2022-12-15T10:49:54;27.67;;;19.03;;
9960;SDS011;5021;51.506;11.320;2022-12-15T10:54:47;28.97;;;21.07;;
9960;SDS011;5021;51.506;11.320;2022-12-15T10:57:15;31.70;;;21.43;;
9960;SDS011;5021;51.506;11.320;2022-12-15T10:59:41;29.53;;;21.30;;
9960;SDS011;5021;51.506;11.320;2022-12-15T11:07:32;27.03;;;20.50;;
9960;SDS011;5021;51.506;11.320;2022-12-15T11:09:58;31.67;;;20.63;;
9960;SDS011;5021;51.506;11.320;2022-12-15T11:12:26;27.80;;;19.50;;
9960;SDS011;5021;51.506;11.320;2022-12-15T11:17:51;33.07;;;22.30;;
9960;SDS011;5021;51.506;11.320;2022-12-15T11:20:21;35.27;;;21.17;;
9960;SDS011;5021;51.506;11.320;2022-12-15T11:22:54;30.50;;;21.53;;
9960;SDS011;5021;51.506;11.320;2022-12-15T11:25:24;30.80;;;21.10;;
9960;SDS011;5021;51.506;11.320;2022-12-15T11:27:53;30.63;;;21.30;;
9960;SDS011;5021;51.506;11.320;2022-12-15T11:30:20;30.00;;;20.07;;
9960;SDS011;5021;51.506;11.320;2022-12-15T11:32:49;32.33;;;20.73;;
9960;SDS011;5021;51.506;11.320;2022-12-15T11:35:19;29.83;;;18.80;;
9960;SDS011;5021;51.506;11.320;2022-12-15T11:37:48;33.70;;;20.63;;
9960;SDS011;5021;51.506;11.320;2022-12-15T11:43:08;27.43;;;19.47;;
9960;SDS011;5021;51.506;11.320;2022-12-15T11:45:53;28.13;;;20.63;;
9960;SDS011;5021;51.506;11.320;2022-12-15T11:48:28;27.23;;;21.10;;
9960;SDS011;5021;51.506;11.320;2022-12-15T11:51:11;29.60;;;21.63;;
9960;SDS011;5021;51.506;11.320;2022-12-15T11:53:44;31.93;;;21.53;;
9960;SDS011;5021;51.506;11.320;2022-12-15T11:56:27;34.33;;;21.17;;
9960;SDS011;5021;51.506;11.320;2022-12-15T12:04:24;26.03;;;19.87;;
9960;SDS011;5021;51.506;11.320;2022-12-15T12:11:52;28.27;;;19.83;;
9960;SDS011;5021;51.506;11.320;2022-12-15T12:19:35;28.33;;;20.10;;
9960;SDS011;5021;51.506;11.320;2022-12-15T12:22:06;26.23;;;18.97;;
9960;SDS011;5021;51.506;11.320;2022-12-15T12:24:43;28.43;;;19.87;;
9960;SDS011;5021;51.506;11.320;2022-12-15T12:29:43;30.33;;;20.30;;
9960;SDS011;5021;51.506;11.320;2022-12-15T12:34:39;27.10;;;19.33;;
9960;SDS011;5021;51.506;11.320;2022-12-15T12:37:14;26.87;;;19.60;;
9960;SDS011;5021;51.506;11.320;2022-12-15T12:39:41;28.97;;;19.20;;
9960;SDS011;5021;51.506;11.320;2022-12-15T12:42:11;26.77;;;19.60;;
9960;SDS011;5021;51.506;11.320;2022-12-15T12:44:39;28.33;;;19.53;;
9960;SDS011;5021;51.506;11.320;2022-12-15T12:47:12;25.67;;;18.57;;
9960;SDS011;5021;51.506;11.320;2022-12-15T12:49:41;28.23;;;19.70;;
9960;SDS011;5021;51.506;11.320;2022-12-15T12:52:18;28.10;;;19.30;;
9960;SDS011;5021;51.506;11.320;2022-12-15T12:55:16;27.77;;;19.47;;
9960;SDS011;5021;51.506;11.320;2022-12-15T12:57:41;28.30;;;19.53;;
9960;SDS011;5021;51.506;11.320;2022-12-15T13:07:48;26.17;;;19.37;;
9960;SDS011;5021;51.506;11.320;2022-12-15T13:10:19;27.67;;;20.93;;
9960;SDS011;5021;51.506;11.320;2022-12-15T13:12:46;29.00;;;19.83;;
9960;SDS011;5021;51.506;11.320;2022-12-15T13:15:16;28.27;;;20.17;;
9960;SDS011;5021;51.506;11.320;2022-12-15T13:17:47;26.23;;;19.00;;
9960;SDS011;5021;51.506;11.320;2022-12-15T13:20:48;30.17;;;20.17;;
9960;SDS011;5021;51.506;11.320;2022-12-15T13:28:40;25.80;;;19.13;;
9960;SDS011;5021;51.506;11.320;2022-12-15T13:39:50;29.07;;;21.07;;
9960;SDS011;5021;51.506;11.320;2022-12-15T13:46:50;31.33;;;21.17;;
9960;SDS011;5021;51.506;11.320;2022-12-15T13:49:27;25.83;;;19.40;;
9960;SDS011;5021;51.506;11.320;2022-12-15T13:51:57;28.20;;;19.70;;
9960;SDS011;5021;51.506;11.320;2022-12-15T13:54:28;31.27;;;21.47;;
9960;SDS011;5021;51.506;11.320;2022-12-15T13:57:09;29.90;;;21.37;;
9960;SDS011;5021;51.506;11.320;2022-12-15T14:07:33;31.03;;;21.53;;
9960;SDS011;5021;51.506;11.320;2022-12-15T14:10:00;27.67;;;19.70;;
9960;SDS011;5021;51.506;11.320;2022-12-15T14:12:26;28.50;;;21.13;;
9960;SDS011;5021;51.506;11.320;2022-12-15T14:14:52;30.50;;;21.03;;
9960;SDS011;5021;51.506;11.320;2022-12-15T14:17:18;27.90;;;21.27;;
9960;SDS011;5021;51.506;11.320;2022-12-15T14:19:45;31.93;;;21.37;;
9960;SDS011;5021;51.506;11.320;2022-12-15T14:22:30;29.17;;;20.97;;
9960;SDS011;5021;51.506;11.320;2022-12-15T14:25:11;34.53;;;23.70;;
9960;SDS011;5021;51.506;11.320;2022-12-15T14:27:37;34.33;;;22.83;;
9960;SDS011;5021;51.506;11.320;2022-12-15T14:32:49;31.67;;;22.33;;
9960;SDS011;5021;51.506;11.320;2022-12-15T14:35:24;34.60;;;22.47;;
9960;SDS011;5021;51.506;11.320;2022-12-15T14:37:53;33.00;;;21.90;;
9960;SDS011;5021;51.506;11.320;2022-12-15T14:40:20;40.10;;;22.97;;
9960;SDS011;5021;51.506;11.320;2022-12-15T14:42:46;29.70;;;22.07;;
9960;SDS011;5021;51.506;11.320;2022-12-15T14:45:18;29.33;;;20.83;;
9960;SDS011;5021;51.506;11.320;2022-12-15T14:47:52;30.47;;;21.40;;
9960;SDS011;5021;51.506;11.320;2022-12-15T14:50:18;36.50;;;24.77;;
9960;SDS011;5021;51.506;11.320;2022-12-15T14:52:46;33.00;;;22.87;;
9960;SDS011;5021;51.506;11.320;2022-12-15T14:57:57;33.67;;;22.63;;
9960;SDS011;5021;51.506;11.320;2022-12-15T15:00:27;34.40;;;22.30;;
9960;SDS011;5021;51.506;11.320;2022-12-15T15:05:39;32.80;;;21.93;;
9960;SDS011;5021;51.506;11.320;2022-12-15T15:08:14;31.73;;;22.60;;
9960;SDS011;5021;51.506;11.320;2022-12-15T15:10:40;32.77;;;22.83;;
9960;SDS011;5021;51.506;11.320;2022-12-15T15:13:15;31.20;;;21.60;;
9960;SDS011;5021;51.506;11.320;2022-12-15T15:15:42;37.40;;;22.33;;
9960;SDS011;5021;51.506;11.320;2022-12-15T15:18:15;32.07;;;21.57;;
9960;SDS011;5021;51.506;11.320;2022-12-15T15:20:46;30.73;;;21.37;;
9960;SDS011;5021;51.506;11.320;2022-12-15T15:23:16;32.47;;;21.83;;
9960;SDS011;5021;51.506;11.320;2022-12-15T15:30:44;33.77;;;22.70;;
9960;SDS011;5021;51.506;11.320;2022-12-15T15:33:10;35.33;;;23.00;;
9960;SDS011;5021;51.506;11.320;2022-12-15T15:35:37;35.67;;;23.00;;
9960;SDS011;5021;51.506;11.320;2022-12-15T15:38:06;32.73;;;23.37;;
9960;SDS011;5021;51.506;11.320;2022-12-15T15:40:36;41.20;;;24.60;;
9960;SDS011;5021;51.506;11.320;2022-12-15T15:43:06;37.30;;;24.30;;
9960;SDS011;5021;51.506;11.320;2022-12-15T15:45:33;33.70;;;22.43;;
9960;SDS011;5021;51.506;11.320;2022-12-15T15:47:59;34.30;;;22.53;;
9960;SDS011;5021;51.506;11.320;2022-12-15T15:50:26;30.53;;;21.90;;
9960;SDS011;5021;51.506;11.320;2022-12-15T15:52:53;33.77;;;22.60;;
9960;SDS011;5021;51.506;11.320;2022-12-15T15:55:23;31.17;;;22.53;;
9960;SDS011;5021;51.506;11.320;2022-12-15T15:57:50;33.90;;;22.90;;
9960;SDS011;5021;51.506;11.320;2022-12-15T16:00:18;51.33;;;31.80;;
9960;SDS011;5021;51.506;11.320;2022-12-15T16:02:45;49.17;;;29.13;;
9960;SDS011;5021;51.506;11.320;2022-12-15T16:05:11;46.27;;;28.73;;
9960;SDS011;5021;51.506;11.320;2022-12-15T16:07:37;49.27;;;30.23;;
9960;SDS011;5021;51.506;11.320;2022-12-15T16:10:05;46.90;;;29.77;;
9960;SDS011;5021;51.506;11.320;2022-12-15T16:12:48;55.33;;;35.57;;
9960;SDS011;5021;51.506;11.320;2022-12-15T16:15:19;72.23;;;43.40;;
9960;SDS011;5021;51.506;11.320;2022-12-15T16:17:46;63.90;;;40.80;;
9960;SDS011;5021;51.506;11.320;2022-12-15T16:20:13;64.83;;;38.63;;
9960;SDS011;5021;51.506;11.320;2022-12-15T16:22:40;61.47;;;38.27;;
9960;SDS011;5021;51.506;11.320;2022-12-15T16:25:11;50.67;;;31.87;;
9960;SDS011;5021;51.506;11.320;2022-12-15T16:27:37;52.67;;;33.20;;
9960;SDS011;5021;51.506;11.320;2022-12-15T16:30:09;50.13;;;31.50;;
9960;SDS011;5021;51.506;11.320;2022-12-15T16:32:38;45.60;;;30.13;;
9960;SDS011;5021;51.506;11.320;2022-12-15T16:35:04;51.70;;;30.63;;
9960;SDS011;5021;51.506;11.320;2022-12-15T16:37:31;75.60;;;46.23;;
9960;SDS011;5021;51.506;11.320;2022-12-15T16:39:58;53.63;;;33.37;;
9960;SDS011;5021;51.506;11.320;2022-12-15T16:42:24;52.70;;;32.37;;
9960;SDS011;5021;51.506;11.320;2022-12-15T16:44:49;49.43;;;31.83;;
9960;SDS011;5021;51.506;11.320;2022-12-15T16:47:15;47.77;;;31.00;;
9960;SDS011;5021;51.506;11.320;2022-12-15T16:49:41;50.20;;;30.73;;